createdAt,value
2019-05-26T00:00:56.008Z,2.08
2019-05-26T00:04:59.512Z,2.00
2019-05-26T00:09:03.166Z,1.77
2019-05-26T00:13:06.780Z,1.95
2019-05-26T00:17:10.610Z,1.20
2019-05-26T00:21:14.092Z,2.05
2019-05-26T00:25:17.940Z,1.67
2019-05-26T00:29:21.422Z,1.82
2019-05-26T00:33:24.906Z,1.77
2019-05-26T00:37:28.387Z,2.10
2019-05-26T00:41:31.976Z,2.30
2019-05-26T00:45:35.478Z,2.13
2019-05-26T00:49:39.394Z,1.67
2019-05-26T00:53:42.914Z,2.20
2019-05-26T00:57:46.407Z,2.62
2019-05-26T01:01:49.887Z,2.30
2019-05-26T01:05:53.778Z,1.77
2019-05-26T01:09:57.596Z,2.15
2019-05-26T01:14:01.411Z,2.92
2019-05-26T01:18:06.211Z,2.05
2019-05-26T01:22:09.699Z,2.55
2019-05-26T01:26:13.525Z,2.22
2019-05-26T01:30:17.457Z,1.92
2019-05-26T01:34:21.232Z,2.05
2019-05-26T01:38:25.948Z,2.08
2019-05-26T01:42:29.442Z,2.55
2019-05-26T01:46:33.204Z,1.77
2019-05-26T01:50:37.022Z,2.27
2019-05-26T01:54:41.092Z,2.10
2019-05-26T01:58:44.651Z,2.27
2019-05-26T02:02:48.134Z,2.05
2019-05-26T02:06:51.979Z,1.80
2019-05-26T02:10:55.468Z,1.92
2019-05-26T02:14:58.951Z,2.52
2019-05-26T02:19:02.501Z,1.98
2019-05-26T02:23:05.987Z,2.45
2019-05-26T02:27:09.472Z,2.12
2019-05-26T02:31:12.952Z,2.05
2019-05-26T02:35:17.865Z,2.10
2019-05-26T02:39:21.366Z,1.80
2019-05-26T02:43:25.123Z,2.27
2019-05-26T02:47:28.709Z,2.42
2019-05-26T02:51:32.190Z,2.00
2019-05-26T02:55:35.660Z,2.15
2019-05-26T02:59:39.217Z,1.90
2019-05-26T03:03:43.323Z,2.12
2019-05-26T03:07:47.073Z,3.08
2019-05-26T03:11:52.827Z,2.10
2019-05-26T03:15:58.588Z,3.08
2019-05-26T03:20:04.429Z,2.70
2019-05-26T03:24:07.935Z,2.62
2019-05-26T03:28:11.402Z,2.60
2019-05-26T03:32:15.245Z,3.20
2019-05-26T03:36:18.728Z,2.47
2019-05-26T03:40:22.237Z,2.87
2019-05-26T03:44:26.092Z,3.20
2019-05-26T03:48:29.580Z,3.05
2019-05-26T03:52:33.058Z,3.72
2019-05-26T03:56:36.543Z,3.70
2019-05-26T04:00:40.013Z,2.50
2019-05-26T04:04:43.507Z,3.00
2019-05-26T04:08:46.996Z,3.95
2019-05-26T04:12:50.875Z,3.83
2019-05-26T04:16:56.481Z,3.45
2019-05-26T04:21:00.396Z,3.40
2019-05-26T04:25:05.664Z,3.22
2019-05-26T04:29:09.424Z,3.70
2019-05-26T04:33:13.371Z,2.40
2019-05-26T04:37:16.868Z,3.37
2019-05-26T04:41:20.346Z,3.35
2019-05-26T04:45:23.849Z,3.12
2019-05-26T04:49:28.446Z,2.87
2019-05-26T04:53:31.950Z,3.02
2019-05-26T04:57:35.440Z,3.37
2019-05-26T05:01:39.441Z,3.58
2019-05-26T05:05:43.389Z,3.33
2019-05-26T05:09:46.881Z,3.90
2019-05-26T05:13:50.709Z,3.58
2019-05-26T05:17:54.202Z,2.95
2019-05-26T05:21:57.951Z,2.37
2019-05-26T05:26:01.738Z,3.05
2019-05-26T05:30:06.788Z,3.30
2019-05-26T05:34:10.356Z,3.30
2019-05-26T05:38:13.868Z,3.08
2019-05-26T05:42:17.349Z,2.40
2019-05-26T05:46:21.069Z,3.75
2019-05-26T05:50:24.657Z,2.85
2019-05-26T05:54:28.155Z,2.58
2019-05-26T05:58:32.107Z,2.60
2019-05-26T06:02:35.589Z,2.77
2019-05-26T06:06:39.532Z,3.22
2019-05-26T06:10:43.015Z,2.55
2019-05-26T06:14:46.539Z,3.02
2019-05-26T06:18:52.818Z,2.37
2019-05-26T06:22:56.303Z,2.40
2019-05-26T06:26:59.769Z,2.30
2019-05-26T06:31:03.358Z,2.70
2019-05-26T06:35:08.324Z,2.30
2019-05-26T06:39:11.898Z,2.10
2019-05-26T06:43:15.591Z,1.77
2019-05-26T06:47:21.044Z,1.98
2019-05-26T06:51:24.758Z,1.92
2019-05-26T06:55:28.836Z,2.58
2019-05-26T06:59:32.340Z,2.47
2019-05-26T07:03:36.030Z,1.87
2019-05-26T07:07:39.988Z,1.90
2019-05-26T07:11:55.544Z,1.65
2019-05-26T07:15:50.158Z,2.08
2019-05-26T07:19:53.656Z,1.72
2019-05-26T07:23:57.169Z,1.52
2019-05-26T07:28:00.651Z,2.15
2019-05-26T07:32:04.646Z,2.15
2019-05-26T07:36:08.466Z,2.20
2019-05-26T07:40:12.301Z,2.10
2019-05-26T07:44:15.793Z,2.05
2019-05-26T07:48:19.425Z,2.30
2019-05-26T07:52:23.223Z,2.47
2019-05-26T07:56:26.718Z,2.75
2019-05-26T08:00:30.545Z,3.10
2019-05-26T08:04:34.376Z,2.70
2019-05-26T08:08:38.311Z,2.87
2019-05-26T08:12:41.811Z,2.40
2019-05-26T08:16:45.378Z,2.05
2019-05-26T08:20:48.887Z,2.02
2019-05-26T08:24:52.858Z,2.10
2019-05-26T08:28:56.451Z,2.45
2019-05-26T08:32:59.952Z,2.95
2019-05-26T08:37:03.442Z,2.42
2019-05-26T08:41:06.951Z,2.45
2019-05-26T08:45:10.499Z,2.30
2019-05-26T08:49:15.619Z,1.82
2019-05-26T08:53:19.106Z,2.60
2019-05-26T08:57:22.881Z,1.80
2019-05-26T09:01:26.630Z,1.63
2019-05-26T09:05:30.401Z,1.57
2019-05-26T09:09:33.897Z,1.77
2019-05-26T09:13:37.375Z,1.60
2019-05-26T09:17:40.879Z,1.90
2019-05-26T09:21:44.694Z,1.75
2019-05-26T09:25:48.307Z,2.35
2019-05-26T09:29:51.766Z,1.57
2019-05-26T09:33:55.252Z,1.77
2019-05-26T09:37:59.042Z,1.50
2019-05-26T09:42:04.087Z,1.25
2019-05-26T09:46:08.016Z,1.40
2019-05-26T09:50:11.933Z,1.40
2019-05-26T09:54:15.715Z,1.42
2019-05-26T09:58:19.209Z,1.60
2019-05-26T10:02:23.073Z,1.90
2019-05-26T10:06:26.562Z,1.27
2019-05-26T10:10:30.151Z,1.62
2019-05-26T10:14:33.639Z,1.32
2019-05-26T10:18:37.436Z,1.65
2019-05-26T10:22:40.936Z,1.98
2019-05-26T10:26:44.870Z,1.62
2019-05-26T10:30:51.800Z,1.85
2019-05-26T10:34:55.286Z,1.72
2019-05-26T10:38:59.053Z,2.17
2019-05-26T10:43:02.805Z,1.30
2019-05-26T10:47:06.639Z,1.85
2019-05-26T10:51:10.213Z,1.47
2019-05-26T10:55:13.933Z,1.80
2019-05-26T10:59:17.767Z,1.30
2019-05-26T11:03:21.600Z,1.65
2019-05-26T11:07:26.955Z,2.20
2019-05-26T11:11:30.533Z,1.77
2019-05-26T11:15:34.014Z,1.90
2019-05-26T11:19:37.788Z,1.90
2019-05-26T11:23:41.343Z,1.57
2019-05-26T11:27:44.911Z,2.00
2019-05-26T11:31:48.375Z,1.37
2019-05-26T11:35:55.221Z,2.08
2019-05-26T11:39:58.767Z,3.52
2019-05-26T11:44:15.346Z,2.97
2019-05-26T11:48:07.802Z,2.37
2019-05-26T11:52:11.620Z,2.00
2019-05-26T11:56:15.102Z,2.58
2019-05-26T12:00:19.556Z,2.20
2019-05-26T12:04:23.332Z,2.52
2019-05-26T12:08:26.823Z,1.92
2019-05-26T12:12:30.315Z,2.40
2019-05-26T12:16:33.800Z,1.85
2019-05-26T12:20:37.273Z,1.90
2019-05-26T12:24:40.758Z,2.27
2019-05-26T12:28:44.522Z,1.75
2019-05-26T12:32:48.009Z,1.80
2019-05-26T12:36:51.694Z,1.35
2019-05-26T12:40:55.182Z,1.80
2019-05-26T12:44:59.692Z,1.67
2019-05-26T12:49:03.637Z,1.70
2019-05-26T12:53:10.354Z,2.20
2019-05-26T12:57:16.579Z,2.12
2019-05-26T13:01:20.427Z,2.30
2019-05-26T13:05:24.327Z,1.70
2019-05-26T13:09:27.797Z,1.85
2019-05-26T13:13:31.345Z,1.67
2019-05-26T13:17:35.193Z,2.10
2019-05-26T13:21:38.682Z,1.60
2019-05-26T13:25:42.176Z,2.08
2019-05-26T13:29:45.760Z,1.90
2019-05-26T13:33:49.320Z,1.95
2019-05-26T13:37:53.299Z,2.27
2019-05-26T13:41:57.790Z,1.40
2019-05-26T13:46:01.267Z,1.80
2019-05-26T13:50:06.979Z,1.52
2019-05-26T13:54:10.455Z,1.82
2019-05-26T13:58:13.990Z,1.90
2019-05-26T14:02:17.749Z,1.92
2019-05-26T14:06:21.273Z,1.72
2019-05-26T14:10:32.961Z,2.05
2019-05-26T14:14:36.791Z,2.22
2019-05-26T14:18:42.773Z,1.80
2019-05-26T14:22:46.536Z,2.17
2019-05-26T14:26:50.024Z,2.05
2019-05-26T14:30:53.497Z,1.98
2019-05-26T14:34:57.010Z,2.55
2019-05-26T14:39:01.267Z,1.65
2019-05-26T14:43:05.499Z,2.02
2019-05-26T14:47:09.254Z,2.05
2019-05-26T14:51:13.027Z,1.47
2019-05-26T14:55:16.922Z,1.80
2019-05-26T14:59:20.682Z,2.10
2019-05-26T15:03:24.180Z,1.80
2019-05-26T15:07:27.670Z,1.65
2019-05-26T15:11:31.158Z,2.15
2019-05-26T15:15:35.204Z,1.57
2019-05-26T15:19:38.802Z,2.40
2019-05-26T15:23:42.357Z,2.22
2019-05-26T15:27:46.685Z,1.65
2019-05-26T15:31:50.353Z,1.90
2019-05-26T15:35:53.843Z,1.80
2019-05-26T15:39:57.342Z,1.32
2019-05-26T15:44:00.846Z,2.70
2019-05-26T15:48:04.698Z,1.98
2019-05-26T15:52:08.197Z,1.45
2019-05-26T15:56:11.689Z,1.77
2019-05-26T16:00:16.325Z,1.57
2019-05-26T16:04:19.848Z,1.92
2019-05-26T16:08:23.338Z,1.65
2019-05-26T16:12:26.831Z,2.12
2019-05-26T16:16:40.718Z,1.52
2019-05-26T16:20:35.547Z,1.60
2019-05-26T16:24:39.164Z,1.80
2019-05-26T16:28:42.882Z,1.80
2019-05-26T16:32:46.703Z,1.82
2019-05-26T16:36:50.623Z,1.62
2019-05-26T16:40:54.115Z,2.15
2019-05-26T16:44:57.608Z,2.08
2019-05-26T16:49:01.088Z,1.35
2019-05-26T16:53:04.649Z,1.85
2019-05-26T16:57:08.283Z,1.62
2019-05-26T17:01:11.768Z,1.85
2019-05-26T17:05:15.719Z,1.90
2019-05-26T17:09:19.278Z,1.55
2019-05-26T17:13:22.766Z,1.72
2019-05-26T17:17:26.646Z,1.50
2019-05-26T17:21:30.120Z,1.83
2019-05-26T17:25:33.998Z,1.55
2019-05-26T17:29:37.807Z,1.97
2019-05-26T17:33:41.408Z,1.67
2019-05-26T17:37:44.899Z,1.82
2019-05-26T17:41:48.410Z,2.22
2019-05-26T17:45:52.268Z,1.80
2019-05-26T17:49:55.756Z,1.82
2019-05-26T17:53:59.248Z,1.92
2019-05-26T17:58:03.112Z,2.35
2019-05-26T18:02:06.607Z,1.52
2019-05-26T18:06:10.125Z,2.02
2019-05-26T18:10:14.655Z,1.92
2019-05-26T18:14:18.472Z,1.72
2019-05-26T18:18:21.974Z,1.22
2019-05-26T18:22:25.868Z,2.17
2019-05-26T18:26:29.596Z,2.05
2019-05-26T18:30:33.119Z,2.20
2019-05-26T18:34:38.232Z,1.82
2019-05-26T18:38:41.791Z,2.22
2019-05-26T18:42:45.745Z,2.17
2019-05-26T18:46:49.329Z,2.02
2019-05-26T18:50:53.784Z,1.50
2019-05-26T18:54:58.215Z,2.10
2019-05-26T18:59:02.008Z,1.87
2019-05-26T19:03:05.522Z,1.52
2019-05-26T19:07:09.398Z,2.00
2019-05-26T19:11:13.062Z,2.08
2019-05-26T19:15:17.011Z,1.95
2019-05-26T19:19:20.540Z,2.00
2019-05-26T19:23:24.476Z,2.47
2019-05-26T19:27:28.035Z,2.03
2019-05-26T19:31:31.805Z,2.33
2019-05-26T19:35:35.706Z,3.22
2019-05-26T19:39:39.715Z,3.22
2019-05-26T19:43:44.995Z,3.02
2019-05-26T19:47:48.547Z,2.98
2019-05-26T19:51:52.117Z,3.30
2019-05-26T19:55:56.013Z,4.10
2019-05-26T19:59:59.512Z,3.27
2019-05-26T20:04:03.121Z,4.17
2019-05-26T20:08:08.998Z,4.03
2019-05-26T20:12:12.497Z,3.27
2019-05-26T20:16:16.069Z,4.10
2019-05-26T20:20:19.861Z,4.40
2019-05-26T20:24:23.588Z,4.53
2019-05-26T20:28:27.379Z,4.50
2019-05-26T20:32:31.018Z,4.55
2019-05-26T20:36:34.502Z,4.62
2019-05-26T20:40:38.336Z,3.80
2019-05-26T20:44:42.062Z,4.78
2019-05-26T20:48:45.626Z,4.95
2019-05-26T20:52:49.277Z,5.08
2019-05-26T20:56:52.739Z,6.25
2019-05-26T21:00:56.334Z,4.83
2019-05-26T21:04:59.840Z,5.20
2019-05-26T21:09:03.728Z,5.05
2019-05-26T21:13:07.850Z,5.80
2019-05-26T21:17:11.722Z,4.83
2019-05-26T21:21:15.316Z,5.28
2019-05-26T21:25:19.255Z,4.90
2019-05-26T21:29:23.072Z,4.85
2019-05-26T21:33:26.787Z,5.33
2019-05-26T21:37:30.291Z,5.27
2019-05-26T21:41:33.785Z,4.92
2019-05-26T21:45:37.269Z,5.13
2019-05-26T21:49:41.009Z,4.85
2019-05-26T21:53:44.741Z,4.78
2019-05-26T21:57:48.537Z,5.40
2019-05-26T22:01:53.810Z,4.25
2019-05-26T22:05:57.662Z,4.60
2019-05-26T22:10:01.339Z,3.52
2019-05-26T22:14:05.338Z,4.12
2019-05-26T22:18:09.380Z,3.37
2019-05-26T22:22:12.997Z,4.17
2019-05-26T22:26:16.536Z,3.98
2019-05-26T22:30:20.357Z,3.70
2019-05-26T22:34:24.144Z,3.98
2019-05-26T22:38:27.792Z,3.65
2019-05-26T22:42:31.562Z,3.67
2019-05-26T22:46:35.884Z,3.12
2019-05-26T22:50:41.302Z,3.62
2019-05-26T22:54:44.768Z,3.62
2019-05-26T22:58:48.584Z,3.45
2019-05-26T23:02:52.298Z,3.20
2019-05-26T23:06:56.558Z,2.10
2019-05-26T23:11:00.049Z,2.62
2019-05-26T23:15:05.101Z,3.15
2019-05-26T23:19:18.823Z,2.42
2019-05-26T23:23:14.268Z,2.60
2019-05-26T23:27:17.747Z,2.30
2019-05-26T23:31:21.239Z,2.52
2019-05-26T23:35:24.737Z,2.65
2019-05-26T23:39:31.770Z,2.77
2019-05-26T23:43:35.273Z,2.67
2019-05-26T23:47:38.753Z,2.52
2019-05-26T23:51:42.300Z,2.40
2019-05-26T23:55:45.791Z,2.37
2019-05-26T23:59:49.655Z,2.35
